sensor_id;sensor_type;location;lat;lon;timestamp;P1;durP1;ratioP1;P2;durP2;ratioP2
14326;SDS011;7247;53.330;-1.180;2023-02-02T00:01:48;6.73;;;2.83;;
14326;SDS011;7247;53.330;-1.180;2023-02-02T00:04:15;11.97;;;3.17;;
14326;SDS011;7247;53.330;-1.180;2023-02-02T00:06:41;9.57;;;2.97;;
14326;SDS011;7247;53.330;-1.180;2023-02-02T00:09:09;12.23;;;3.27;;
14326;SDS011;7247;53.330;-1.180;2023-02-02T00:11:36;11.40;;;3.10;;
14326;SDS011;7247;53.330;-1.180;2023-02-02T00:14:02;12.47;;;3.53;;
14326;SDS011;7247;53.330;-1.180;2023-02-02T00:16:33;8.57;;;2.80;;
14326;SDS011;7247;53.330;-1.180;2023-02-02T00:19:02;14.50;;;3.57;;
14326;SDS011;7247;53.330;-1.180;2023-02-02T00:21:28;15.13;;;3.27;;
14326;SDS011;7247;53.330;-1.180;2023-02-02T00:23:55;12.87;;;3.90;;
14326;SDS011;7247;53.330;-1.180;2023-02-02T00:26:23;11.97;;;3.23;;
14326;SDS011;7247;53.330;-1.180;2023-02-02T00:28:49;12.43;;;3.23;;
14326;SDS011;7247;53.330;-1.180;2023-02-02T00:31:15;16.13;;;3.57;;
14326;SDS011;7247;53.330;-1.180;2023-02-02T00:33:43;16.80;;;4.17;;
14326;SDS011;7247;53.330;-1.180;2023-02-02T00:36:09;18.10;;;4.33;;
14326;SDS011;7247;53.330;-1.180;2023-02-02T00:38:36;16.60;;;3.77;;
14326;SDS011;7247;53.330;-1.180;2023-02-02T00:41:03;14.47;;;3.80;;
14326;SDS011;7247;53.330;-1.180;2023-02-02T00:43:30;13.87;;;3.97;;
14326;SDS011;7247;53.330;-1.180;2023-02-02T00:45:57;16.90;;;3.87;;
14326;SDS011;7247;53.330;-1.180;2023-02-02T00:48:22;13.10;;;3.30;;
14326;SDS011;7247;53.330;-1.180;2023-02-02T00:50:50;13.67;;;3.27;;
14326;SDS011;7247;53.330;-1.180;2023-02-02T00:53:16;13.13;;;3.23;;
14326;SDS011;7247;53.330;-1.180;2023-02-02T00:55:42;12.70;;;3.27;;
14326;SDS011;7247;53.330;-1.180;2023-02-02T00:58:09;14.23;;;3.40;;
14326;SDS011;7247;53.330;-1.180;2023-02-02T01:00:37;14.33;;;3.60;;
14326;SDS011;7247;53.330;-1.180;2023-02-02T01:03:04;14.37;;;3.20;;
14326;SDS011;7247;53.330;-1.180;2023-02-02T01:05:31;11.70;;;3.47;;
14326;SDS011;7247;53.330;-1.180;2023-02-02T01:07:57;11.43;;;3.37;;
14326;SDS011;7247;53.330;-1.180;2023-02-02T01:10:24;10.80;;;3.37;;
14326;SDS011;7247;53.330;-1.180;2023-02-02T01:12:50;13.27;;;3.40;;
14326;SDS011;7247;53.330;-1.180;2023-02-02T01:15:17;9.37;;;2.93;;
14326;SDS011;7247;53.330;-1.180;2023-02-02T01:17:44;12.80;;;3.20;;
14326;SDS011;7247;53.330;-1.180;2023-02-02T01:20:15;9.20;;;2.93;;
14326;SDS011;7247;53.330;-1.180;2023-02-02T01:22:41;14.00;;;3.37;;
14326;SDS011;7247;53.330;-1.180;2023-02-02T01:25:08;10.27;;;2.80;;
14326;SDS011;7247;53.330;-1.180;2023-02-02T01:27:35;12.93;;;2.60;;
14326;SDS011;7247;53.330;-1.180;2023-02-02T01:30:01;11.43;;;2.97;;
14326;SDS011;7247;53.330;-1.180;2023-02-02T01:32:27;9.53;;;3.23;;
14326;SDS011;7247;53.330;-1.180;2023-02-02T01:34:55;10.20;;;2.70;;
14326;SDS011;7247;53.330;-1.180;2023-02-02T01:37:22;8.73;;;3.30;;
14326;SDS011;7247;53.330;-1.180;2023-02-02T01:39:48;7.67;;;2.90;;
14326;SDS011;7247;53.330;-1.180;2023-02-02T01:42:19;11.17;;;3.13;;
14326;SDS011;7247;53.330;-1.180;2023-02-02T01:45:00;10.70;;;2.63;;
14326;SDS011;7247;53.330;-1.180;2023-02-02T01:47:28;10.47;;;2.93;;
14326;SDS011;7247;53.330;-1.180;2023-02-02T01:49:57;8.10;;;2.57;;
14326;SDS011;7247;53.330;-1.180;2023-02-02T01:52:24;14.50;;;3.13;;
14326;SDS011;7247;53.330;-1.180;2023-02-02T01:54:52;13.33;;;2.97;;
14326;SDS011;7247;53.330;-1.180;2023-02-02T01:57:20;11.33;;;3.17;;
14326;SDS011;7247;53.330;-1.180;2023-02-02T01:59:48;12.30;;;2.80;;
14326;SDS011;7247;53.330;-1.180;2023-02-02T02:02:15;14.97;;;2.77;;
14326;SDS011;7247;53.330;-1.180;2023-02-02T02:04:41;13.03;;;3.40;;
14326;SDS011;7247;53.330;-1.180;2023-02-02T02:07:09;11.97;;;2.87;;
14326;SDS011;7247;53.330;-1.180;2023-02-02T02:09:36;13.30;;;3.30;;
14326;SDS011;7247;53.330;-1.180;2023-02-02T02:12:05;10.10;;;2.73;;
14326;SDS011;7247;53.330;-1.180;2023-02-02T02:14:37;12.43;;;2.67;;
14326;SDS011;7247;53.330;-1.180;2023-02-02T02:17:26;16.27;;;3.47;;
14326;SDS011;7247;53.330;-1.180;2023-02-02T02:20:03;12.23;;;2.43;;
14326;SDS011;7247;53.330;-1.180;2023-02-02T02:23:01;11.13;;;2.50;;
14326;SDS011;7247;53.330;-1.180;2023-02-02T02:25:55;8.83;;;1.90;;
14326;SDS011;7247;53.330;-1.180;2023-02-02T02:28:47;9.70;;;2.53;;
14326;SDS011;7247;53.330;-1.180;2023-02-02T02:31:40;9.03;;;2.17;;
14326;SDS011;7247;53.330;-1.180;2023-02-02T02:34:09;11.80;;;2.33;;
14326;SDS011;7247;53.330;-1.180;2023-02-02T02:36:41;11.80;;;2.43;;
14326;SDS011;7247;53.330;-1.180;2023-02-02T02:39:11;11.00;;;2.70;;
14326;SDS011;7247;53.330;-1.180;2023-02-02T02:41:42;10.47;;;2.37;;
14326;SDS011;7247;53.330;-1.180;2023-02-02T02:44:10;8.93;;;2.00;;
14326;SDS011;7247;53.330;-1.180;2023-02-02T02:46:37;12.00;;;2.70;;
14326;SDS011;7247;53.330;-1.180;2023-02-02T02:49:06;8.07;;;2.47;;
14326;SDS011;7247;53.330;-1.180;2023-02-02T02:51:44;10.80;;;2.80;;
14326;SDS011;7247;53.330;-1.180;2023-02-02T02:54:11;10.53;;;2.63;;
14326;SDS011;7247;53.330;-1.180;2023-02-02T02:56:41;6.30;;;2.50;;
14326;SDS011;7247;53.330;-1.180;2023-02-02T02:59:10;5.37;;;2.33;;
14326;SDS011;7247;53.330;-1.180;2023-02-02T03:01:42;6.63;;;2.20;;
14326;SDS011;7247;53.330;-1.180;2023-02-02T03:04:15;8.47;;;2.70;;
14326;SDS011;7247;53.330;-1.180;2023-02-02T03:06:44;10.17;;;2.50;;
14326;SDS011;7247;53.330;-1.180;2023-02-02T03:09:13;7.27;;;2.53;;
14326;SDS011;7247;53.330;-1.180;2023-02-02T03:11:41;6.20;;;2.53;;
14326;SDS011;7247;53.330;-1.180;2023-02-02T03:14:07;7.37;;;2.70;;
14326;SDS011;7247;53.330;-1.180;2023-02-02T03:16:34;6.13;;;2.30;;
14326;SDS011;7247;53.330;-1.180;2023-02-02T03:19:01;5.90;;;3.10;;
14326;SDS011;7247;53.330;-1.180;2023-02-02T03:21:30;9.90;;;3.03;;
14326;SDS011;7247;53.330;-1.180;2023-02-02T03:23:56;8.63;;;3.53;;
14326;SDS011;7247;53.330;-1.180;2023-02-02T03:26:22;9.37;;;3.63;;
14326;SDS011;7247;53.330;-1.180;2023-02-02T03:28:49;7.90;;;4.10;;
14326;SDS011;7247;53.330;-1.180;2023-02-02T03:31:15;14.67;;;4.87;;
14326;SDS011;7247;53.330;-1.180;2023-02-02T03:33:42;13.17;;;5.53;;
14326;SDS011;7247;53.330;-1.180;2023-02-02T03:36:08;9.67;;;5.60;;
14326;SDS011;7247;53.330;-1.180;2023-02-02T03:38:36;14.10;;;6.13;;
14326;SDS011;7247;53.330;-1.180;2023-02-02T03:41:03;9.00;;;5.47;;
14326;SDS011;7247;53.330;-1.180;2023-02-02T03:43:30;8.70;;;5.40;;
14326;SDS011;7247;53.330;-1.180;2023-02-02T03:45:56;10.77;;;5.50;;
14326;SDS011;7247;53.330;-1.180;2023-02-02T03:48:23;11.50;;;5.67;;
14326;SDS011;7247;53.330;-1.180;2023-02-02T03:50:49;11.10;;;5.53;;
14326;SDS011;7247;53.330;-1.180;2023-02-02T03:53:16;9.10;;;5.30;;
14326;SDS011;7247;53.330;-1.180;2023-02-02T03:55:44;10.07;;;4.70;;
14326;SDS011;7247;53.330;-1.180;2023-02-02T03:58:10;10.03;;;4.77;;
14326;SDS011;7247;53.330;-1.180;2023-02-02T04:00:37;8.67;;;4.27;;
14326;SDS011;7247;53.330;-1.180;2023-02-02T04:03:03;8.33;;;4.20;;
14326;SDS011;7247;53.330;-1.180;2023-02-02T04:05:29;6.93;;;3.60;;
14326;SDS011;7247;53.330;-1.180;2023-02-02T04:07:56;6.93;;;2.80;;
14326;SDS011;7247;53.330;-1.180;2023-02-02T04:10:22;8.13;;;2.83;;
14326;SDS011;7247;53.330;-1.180;2023-02-02T04:12:50;8.40;;;2.90;;
14326;SDS011;7247;53.330;-1.180;2023-02-02T04:15:16;7.80;;;2.50;;
14326;SDS011;7247;53.330;-1.180;2023-02-02T04:17:43;8.47;;;2.60;;
14326;SDS011;7247;53.330;-1.180;2023-02-02T04:20:10;8.97;;;2.50;;
14326;SDS011;7247;53.330;-1.180;2023-02-02T04:22:36;6.90;;;2.30;;
14326;SDS011;7247;53.330;-1.180;2023-02-02T04:25:03;8.80;;;2.73;;
14326;SDS011;7247;53.330;-1.180;2023-02-02T04:27:29;9.33;;;2.37;;
14326;SDS011;7247;53.330;-1.180;2023-02-02T04:29:59;8.70;;;2.33;;
14326;SDS011;7247;53.330;-1.180;2023-02-02T04:32:25;9.40;;;2.40;;
14326;SDS011;7247;53.330;-1.180;2023-02-02T04:34:52;12.27;;;2.50;;
14326;SDS011;7247;53.330;-1.180;2023-02-02T04:37:18;11.90;;;2.40;;
14326;SDS011;7247;53.330;-1.180;2023-02-02T04:39:44;5.93;;;1.97;;
14326;SDS011;7247;53.330;-1.180;2023-02-02T04:42:11;6.03;;;2.30;;
14326;SDS011;7247;53.330;-1.180;2023-02-02T04:44:37;6.60;;;1.87;;
14326;SDS011;7247;53.330;-1.180;2023-02-02T04:47:06;6.63;;;2.00;;
14326;SDS011;7247;53.330;-1.180;2023-02-02T04:49:32;6.30;;;2.07;;
14326;SDS011;7247;53.330;-1.180;2023-02-02T04:51:59;6.77;;;2.30;;
14326;SDS011;7247;53.330;-1.180;2023-02-02T04:54:25;7.10;;;2.47;;
14326;SDS011;7247;53.330;-1.180;2023-02-02T04:56:51;6.27;;;1.90;;
14326;SDS011;7247;53.330;-1.180;2023-02-02T04:59:18;6.83;;;2.30;;
14326;SDS011;7247;53.330;-1.180;2023-02-02T05:01:44;7.50;;;2.17;;
14326;SDS011;7247;53.330;-1.180;2023-02-02T05:04:12;8.63;;;1.97;;
14326;SDS011;7247;53.330;-1.180;2023-02-02T05:06:38;6.87;;;1.90;;
14326;SDS011;7247;53.330;-1.180;2023-02-02T05:09:05;8.00;;;2.50;;
14326;SDS011;7247;53.330;-1.180;2023-02-02T05:11:31;9.13;;;2.70;;
14326;SDS011;7247;53.330;-1.180;2023-02-02T05:13:58;4.87;;;1.80;;
14326;SDS011;7247;53.330;-1.180;2023-02-02T05:16:24;4.77;;;1.93;;
14326;SDS011;7247;53.330;-1.180;2023-02-02T05:18:51;7.73;;;2.20;;
14326;SDS011;7247;53.330;-1.180;2023-02-02T05:21:19;8.60;;;2.13;;
14326;SDS011;7247;53.330;-1.180;2023-02-02T05:23:45;6.80;;;1.83;;
14326;SDS011;7247;53.330;-1.180;2023-02-02T05:26:13;4.73;;;1.80;;
14326;SDS011;7247;53.330;-1.180;2023-02-02T05:28:41;4.37;;;2.00;;
14326;SDS011;7247;53.330;-1.180;2023-02-02T05:31:08;6.67;;;1.90;;
14326;SDS011;7247;53.330;-1.180;2023-02-02T05:33:34;6.53;;;2.10;;
14326;SDS011;7247;53.330;-1.180;2023-02-02T05:36:00;3.87;;;1.90;;
14326;SDS011;7247;53.330;-1.180;2023-02-02T05:38:28;5.33;;;2.00;;
14326;SDS011;7247;53.330;-1.180;2023-02-02T05:40:55;6.57;;;2.27;;
14326;SDS011;7247;53.330;-1.180;2023-02-02T05:43:23;6.73;;;2.07;;
14326;SDS011;7247;53.330;-1.180;2023-02-02T05:45:49;4.87;;;2.20;;
14326;SDS011;7247;53.330;-1.180;2023-02-02T05:48:16;6.70;;;2.30;;
14326;SDS011;7247;53.330;-1.180;2023-02-02T05:50:42;7.07;;;2.23;;
14326;SDS011;7247;53.330;-1.180;2023-02-02T05:53:10;4.73;;;2.13;;
14326;SDS011;7247;53.330;-1.180;2023-02-02T05:55:39;6.67;;;2.30;;
14326;SDS011;7247;53.330;-1.180;2023-02-02T05:58:05;7.43;;;2.70;;
14326;SDS011;7247;53.330;-1.180;2023-02-02T06:00:32;6.70;;;2.27;;
14326;SDS011;7247;53.330;-1.180;2023-02-02T06:02:59;4.20;;;1.93;;
14326;SDS011;7247;53.330;-1.180;2023-02-02T06:05:25;5.67;;;2.13;;
14326;SDS011;7247;53.330;-1.180;2023-02-02T06:07:51;5.37;;;2.10;;
14326;SDS011;7247;53.330;-1.180;2023-02-02T06:10:18;6.50;;;2.53;;
14326;SDS011;7247;53.330;-1.180;2023-02-02T06:12:46;11.17;;;2.80;;
14326;SDS011;7247;53.330;-1.180;2023-02-02T06:15:12;4.50;;;2.40;;
14326;SDS011;7247;53.330;-1.180;2023-02-02T06:17:39;6.30;;;2.70;;
14326;SDS011;7247;53.330;-1.180;2023-02-02T06:20:05;6.33;;;2.40;;
14326;SDS011;7247;53.330;-1.180;2023-02-02T06:22:32;5.33;;;2.83;;
14326;SDS011;7247;53.330;-1.180;2023-02-02T06:24:58;5.97;;;2.40;;
14326;SDS011;7247;53.330;-1.180;2023-02-02T06:27:24;9.53;;;2.67;;
14326;SDS011;7247;53.330;-1.180;2023-02-02T06:29:52;5.93;;;2.50;;
14326;SDS011;7247;53.330;-1.180;2023-02-02T06:32:19;7.47;;;2.67;;
14326;SDS011;7247;53.330;-1.180;2023-02-02T06:34:45;7.73;;;2.80;;
14326;SDS011;7247;53.330;-1.180;2023-02-02T06:37:11;4.60;;;2.57;;
14326;SDS011;7247;53.330;-1.180;2023-02-02T06:39:38;5.87;;;2.40;;
14326;SDS011;7247;53.330;-1.180;2023-02-02T06:42:04;6.60;;;2.50;;
14326;SDS011;7247;53.330;-1.180;2023-02-02T06:44:31;6.67;;;2.90;;
14326;SDS011;7247;53.330;-1.180;2023-02-02T06:46:59;6.93;;;2.50;;
14326;SDS011;7247;53.330;-1.180;2023-02-02T06:49:25;6.20;;;2.80;;
14326;SDS011;7247;53.330;-1.180;2023-02-02T06:51:51;4.43;;;2.17;;
14326;SDS011;7247;53.330;-1.180;2023-02-02T06:54:18;5.13;;;2.10;;
14326;SDS011;7247;53.330;-1.180;2023-02-02T06:56:44;4.83;;;2.67;;
14326;SDS011;7247;53.330;-1.180;2023-02-02T06:59:11;4.20;;;2.17;;
14326;SDS011;7247;53.330;-1.180;2023-02-02T07:01:37;5.47;;;2.43;;
14326;SDS011;7247;53.330;-1.180;2023-02-02T07:04:05;4.60;;;2.43;;
14326;SDS011;7247;53.330;-1.180;2023-02-02T07:06:31;4.20;;;2.20;;
14326;SDS011;7247;53.330;-1.180;2023-02-02T07:08:58;4.03;;;2.00;;
14326;SDS011;7247;53.330;-1.180;2023-02-02T07:11:25;4.57;;;2.50;;
14326;SDS011;7247;53.330;-1.180;2023-02-02T07:13:51;4.63;;;2.50;;
14326;SDS011;7247;53.330;-1.180;2023-02-02T07:16:19;3.37;;;3.00;;
14326;SDS011;7247;53.330;-1.180;2023-02-02T07:18:45;4.97;;;3.13;;
14326;SDS011;7247;53.330;-1.180;2023-02-02T07:21:18;5.10;;;3.10;;
14326;SDS011;7247;53.330;-1.180;2023-02-02T07:23:44;5.37;;;3.17;;
14326;SDS011;7247;53.330;-1.180;2023-02-02T07:26:11;5.63;;;3.50;;
14326;SDS011;7247;53.330;-1.180;2023-02-02T07:28:37;3.97;;;3.30;;
14326;SDS011;7247;53.330;-1.180;2023-02-02T07:31:11;6.27;;;3.77;;
14326;SDS011;7247;53.330;-1.180;2023-02-02T07:33:39;6.27;;;3.67;;
14326;SDS011;7247;53.330;-1.180;2023-02-02T07:36:05;7.00;;;4.30;;
14326;SDS011;7247;53.330;-1.180;2023-02-02T07:38:33;4.90;;;3.97;;
14326;SDS011;7247;53.330;-1.180;2023-02-02T07:41:00;5.43;;;3.90;;
14326;SDS011;7247;53.330;-1.180;2023-02-02T07:43:26;4.73;;;3.77;;
14326;SDS011;7247;53.330;-1.180;2023-02-02T07:45:53;5.30;;;4.07;;
14326;SDS011;7247;53.330;-1.180;2023-02-02T07:48:19;5.93;;;4.57;;
14326;SDS011;7247;53.330;-1.180;2023-02-02T07:50:46;5.97;;;4.57;;
14326;SDS011;7247;53.330;-1.180;2023-02-02T07:53:12;4.80;;;4.40;;
14326;SDS011;7247;53.330;-1.180;2023-02-02T07:55:40;6.27;;;4.20;;
14326;SDS011;7247;53.330;-1.180;2023-02-02T07:58:06;5.07;;;4.23;;
14326;SDS011;7247;53.330;-1.180;2023-02-02T08:00:34;7.03;;;4.03;;
14326;SDS011;7247;53.330;-1.180;2023-02-02T08:03:00;4.67;;;3.60;;
14326;SDS011;7247;53.330;-1.180;2023-02-02T08:05:27;6.20;;;3.80;;
14326;SDS011;7247;53.330;-1.180;2023-02-02T08:07:53;5.53;;;3.67;;
14326;SDS011;7247;53.330;-1.180;2023-02-02T08:10:19;6.30;;;4.20;;
14326;SDS011;7247;53.330;-1.180;2023-02-02T08:12:47;6.23;;;3.80;;
14326;SDS011;7247;53.330;-1.180;2023-02-02T08:15:14;4.47;;;3.70;;
14326;SDS011;7247;53.330;-1.180;2023-02-02T08:17:43;5.00;;;4.00;;
14326;SDS011;7247;53.330;-1.180;2023-02-02T08:20:10;6.37;;;4.17;;
14326;SDS011;7247;53.330;-1.180;2023-02-02T08:22:37;5.80;;;4.20;;
14326;SDS011;7247;53.330;-1.180;2023-02-02T08:25:04;5.57;;;3.70;;
14326;SDS011;7247;53.330;-1.180;2023-02-02T08:27:30;5.73;;;3.80;;
14326;SDS011;7247;53.330;-1.180;2023-02-02T08:29:58;4.43;;;4.03;;
14326;SDS011;7247;53.330;-1.180;2023-02-02T08:32:25;5.60;;;4.10;;
14326;SDS011;7247;53.330;-1.180;2023-02-02T08:34:51;7.00;;;4.00;;
14326;SDS011;7247;53.330;-1.180;2023-02-02T08:37:17;6.27;;;4.00;;
14326;SDS011;7247;53.330;-1.180;2023-02-02T08:39:44;8.13;;;4.43;;
14326;SDS011;7247;53.330;-1.180;2023-02-02T08:42:10;6.23;;;4.47;;
14326;SDS011;7247;53.330;-1.180;2023-02-02T08:44:37;7.17;;;4.80;;
14326;SDS011;7247;53.330;-1.180;2023-02-02T08:47:05;7.77;;;4.83;;
14326;SDS011;7247;53.330;-1.180;2023-02-02T08:49:31;8.87;;;5.10;;
14326;SDS011;7247;53.330;-1.180;2023-02-02T08:51:57;7.57;;;4.77;;
14326;SDS011;7247;53.330;-1.180;2023-02-02T08:54:24;8.73;;;4.70;;
14326;SDS011;7247;53.330;-1.180;2023-02-02T08:56:50;6.33;;;4.43;;
14326;SDS011;7247;53.330;-1.180;2023-02-02T08:59:17;6.40;;;3.73;;
14326;SDS011;7247;53.330;-1.180;2023-02-02T09:01:43;4.37;;;3.23;;
14326;SDS011;7247;53.330;-1.180;2023-02-02T09:04:12;5.50;;;3.37;;
14326;SDS011;7247;53.330;-1.180;2023-02-02T09:06:40;5.77;;;3.20;;
14326;SDS011;7247;53.330;-1.180;2023-02-02T09:09:07;7.63;;;3.30;;
14326;SDS011;7247;53.330;-1.180;2023-02-02T09:11:33;6.97;;;3.20;;
14326;SDS011;7247;53.330;-1.180;2023-02-02T09:14:00;5.23;;;2.90;;
14326;SDS011;7247;53.330;-1.180;2023-02-02T09:16:27;6.87;;;3.20;;
14326;SDS011;7247;53.330;-1.180;2023-02-02T09:18:54;7.10;;;3.00;;
14326;SDS011;7247;53.330;-1.180;2023-02-02T09:21:23;6.17;;;2.73;;
14326;SDS011;7247;53.330;-1.180;2023-02-02T09:26:18;3.73;;;2.53;;
14326;SDS011;7247;53.330;-1.180;2023-02-02T09:28:45;6.47;;;2.57;;
14326;SDS011;7247;53.330;-1.180;2023-02-02T09:31:12;3.93;;;2.17;;
14326;SDS011;7247;53.330;-1.180;2023-02-02T09:33:38;2.73;;;2.10;;
14326;SDS011;7247;53.330;-1.180;2023-02-02T09:36:05;3.47;;;2.00;;
14326;SDS011;7247;53.330;-1.180;2023-02-02T09:38:33;3.20;;;1.97;;
14326;SDS011;7247;53.330;-1.180;2023-02-02T09:41:00;2.90;;;1.67;;
14326;SDS011;7247;53.330;-1.180;2023-02-02T09:43:37;2.80;;;1.80;;
14326;SDS011;7247;53.330;-1.180;2023-02-02T09:46:08;2.00;;;1.60;;
14326;SDS011;7247;53.330;-1.180;2023-02-02T09:48:38;3.50;;;1.70;;
14326;SDS011;7247;53.330;-1.180;2023-02-02T09:51:11;2.43;;;1.60;;
14326;SDS011;7247;53.330;-1.180;2023-02-02T09:53:41;3.13;;;1.50;;
14326;SDS011;7247;53.330;-1.180;2023-02-02T09:56:10;5.67;;;1.80;;
14326;SDS011;7247;53.330;-1.180;2023-02-02T09:58:40;3.40;;;1.70;;
14326;SDS011;7247;53.330;-1.180;2023-02-02T10:01:10;5.37;;;1.80;;
14326;SDS011;7247;53.330;-1.180;2023-02-02T10:03:38;3.77;;;1.93;;
14326;SDS011;7247;53.330;-1.180;2023-02-02T10:06:10;2.87;;;1.80;;
14326;SDS011;7247;53.330;-1.180;2023-02-02T10:08:42;3.83;;;1.90;;
14326;SDS011;7247;53.330;-1.180;2023-02-02T10:11:17;1.73;;;1.60;;
14326;SDS011;7247;53.330;-1.180;2023-02-02T10:13:46;2.17;;;1.63;;
14326;SDS011;7247;53.330;-1.180;2023-02-02T10:16:13;3.83;;;1.50;;
14326;SDS011;7247;53.330;-1.180;2023-02-02T10:18:42;2.30;;;1.60;;
14326;SDS011;7247;53.330;-1.180;2023-02-02T10:21:10;2.80;;;1.60;;
14326;SDS011;7247;53.330;-1.180;2023-02-02T10:23:38;3.90;;;1.67;;
14326;SDS011;7247;53.330;-1.180;2023-02-02T10:26:07;3.00;;;1.50;;
14326;SDS011;7247;53.330;-1.180;2023-02-02T10:28:41;2.17;;;1.50;;
14326;SDS011;7247;53.330;-1.180;2023-02-02T10:31:10;4.30;;;1.30;;
14326;SDS011;7247;53.330;-1.180;2023-02-02T10:33:41;1.43;;;1.33;;
14326;SDS011;7247;53.330;-1.180;2023-02-02T10:36:11;2.37;;;1.23;;
14326;SDS011;7247;53.330;-1.180;2023-02-02T10:38:42;2.30;;;1.30;;
14326;SDS011;7247;53.330;-1.180;2023-02-02T10:41:16;1.90;;;1.33;;
14326;SDS011;7247;53.330;-1.180;2023-02-02T10:43:58;4.20;;;1.77;;
14326;SDS011;7247;53.330;-1.180;2023-02-02T10:46:27;3.70;;;1.50;;
14326;SDS011;7247;53.330;-1.180;2023-02-02T10:48:59;2.43;;;1.40;;
14326;SDS011;7247;53.330;-1.180;2023-02-02T10:51:33;2.60;;;1.60;;
14326;SDS011;7247;53.330;-1.180;2023-02-02T10:54:00;2.50;;;1.47;;
14326;SDS011;7247;53.330;-1.180;2023-02-02T10:56:32;2.13;;;1.30;;
14326;SDS011;7247;53.330;-1.180;2023-02-02T10:59:02;1.80;;;1.33;;
14326;SDS011;7247;53.330;-1.180;2023-02-02T11:01:30;2.17;;;1.37;;
14326;SDS011;7247;53.330;-1.180;2023-02-02T11:03:57;3.27;;;1.57;;
14326;SDS011;7247;53.330;-1.180;2023-02-02T11:06:46;1.80;;;1.60;;
14326;SDS011;7247;53.330;-1.180;2023-02-02T11:09:16;1.70;;;1.60;;
14326;SDS011;7247;53.330;-1.180;2023-02-02T11:11:45;2.60;;;1.80;;
14326;SDS011;7247;53.330;-1.180;2023-02-02T11:14:16;2.00;;;1.73;;
14326;SDS011;7247;53.330;-1.180;2023-02-02T11:16:43;1.70;;;1.40;;
14326;SDS011;7247;53.330;-1.180;2023-02-02T11:19:21;1.90;;;1.80;;
14326;SDS011;7247;53.330;-1.180;2023-02-02T11:21:48;2.77;;;1.63;;
14326;SDS011;7247;53.330;-1.180;2023-02-02T11:24:18;3.07;;;1.60;;
14326;SDS011;7247;53.330;-1.180;2023-02-02T11:26:47;2.63;;;1.50;;
14326;SDS011;7247;53.330;-1.180;2023-02-02T11:29:17;1.40;;;1.30;;
14326;SDS011;7247;53.330;-1.180;2023-02-02T11:31:44;2.17;;;1.30;;
14326;SDS011;7247;53.330;-1.180;2023-02-02T11:34:15;1.77;;;1.30;;
14326;SDS011;7247;53.330;-1.180;2023-02-02T11:36:58;2.67;;;1.30;;
14326;SDS011;7247;53.330;-1.180;2023-02-02T11:39:25;1.87;;;1.20;;
14326;SDS011;7247;53.330;-1.180;2023-02-02T11:41:58;3.33;;;1.20;;
14326;SDS011;7247;53.330;-1.180;2023-02-02T11:44:25;1.87;;;1.20;;
14326;SDS011;7247;53.330;-1.180;2023-02-02T11:46:52;1.10;;;1.00;;
14326;SDS011;7247;53.330;-1.180;2023-02-02T11:49:20;3.67;;;1.20;;
14326;SDS011;7247;53.330;-1.180;2023-02-02T11:51:54;1.67;;;1.10;;
14326;SDS011;7247;53.330;-1.180;2023-02-02T11:54:22;1.47;;;1.27;;
14326;SDS011;7247;53.330;-1.180;2023-02-02T11:56:52;2.00;;;1.20;;
14326;SDS011;7247;53.330;-1.180;2023-02-02T11:59:28;3.10;;;1.13;;
14326;SDS011;7247;53.330;-1.180;2023-02-02T12:02:09;2.60;;;1.20;;
14326;SDS011;7247;53.330;-1.180;2023-02-02T12:04:40;1.70;;;1.00;;
14326;SDS011;7247;53.330;-1.180;2023-02-02T12:07:16;1.63;;;1.20;;
14326;SDS011;7247;53.330;-1.180;2023-02-02T12:09:43;2.67;;;1.00;;
14326;SDS011;7247;53.330;-1.180;2023-02-02T12:12:14;1.93;;;0.90;;
14326;SDS011;7247;53.330;-1.180;2023-02-02T12:14:47;3.07;;;1.00;;
14326;SDS011;7247;53.330;-1.180;2023-02-02T12:17:21;2.20;;;1.00;;
14326;SDS011;7247;53.330;-1.180;2023-02-02T12:20:08;3.20;;;1.20;;
14326;SDS011;7247;53.330;-1.180;2023-02-02T12:22:45;1.43;;;1.00;;
14326;SDS011;7247;53.330;-1.180;2023-02-02T12:25:25;1.47;;;0.87;;
14326;SDS011;7247;53.330;-1.180;2023-02-02T12:27:57;1.50;;;1.00;;
14326;SDS011;7247;53.330;-1.180;2023-02-02T12:30:28;1.40;;;1.10;;
14326;SDS011;7247;53.330;-1.180;2023-02-02T12:33:05;1.33;;;1.10;;
14326;SDS011;7247;53.330;-1.180;2023-02-02T12:38:27;2.07;;;1.23;;
14326;SDS011;7247;53.330;-1.180;2023-02-02T12:41:06;1.57;;;1.20;;
14326;SDS011;7247;53.330;-1.180;2023-02-02T12:43:37;2.17;;;1.57;;
14326;SDS011;7247;53.330;-1.180;2023-02-02T12:46:28;2.30;;;1.63;;
14326;SDS011;7247;53.330;-1.180;2023-02-02T12:49:00;2.30;;;1.70;;
14326;SDS011;7247;53.330;-1.180;2023-02-02T12:51:41;3.03;;;1.60;;
14326;SDS011;7247;53.330;-1.180;2023-02-02T12:54:19;2.63;;;1.77;;
14326;SDS011;7247;53.330;-1.180;2023-02-02T12:56:48;1.60;;;1.50;;
14326;SDS011;7247;53.330;-1.180;2023-02-02T12:59:18;2.70;;;1.70;;
14326;SDS011;7247;53.330;-1.180;2023-02-02T13:01:52;1.77;;;1.30;;
14326;SDS011;7247;53.330;-1.180;2023-02-02T13:04:31;2.47;;;1.00;;
14326;SDS011;7247;53.330;-1.180;2023-02-02T13:07:11;1.40;;;1.27;;
14326;SDS011;7247;53.330;-1.180;2023-02-02T13:09:44;1.13;;;1.03;;
14326;SDS011;7247;53.330;-1.180;2023-02-02T13:12:14;1.63;;;0.90;;
14326;SDS011;7247;53.330;-1.180;2023-02-02T13:14:43;0.93;;;0.90;;
14326;SDS011;7247;53.330;-1.180;2023-02-02T13:17:12;3.10;;;1.10;;
14326;SDS011;7247;53.330;-1.180;2023-02-02T13:19:40;1.47;;;1.00;;
14326;SDS011;7247;53.330;-1.180;2023-02-02T13:22:09;0.93;;;0.87;;
14326;SDS011;7247;53.330;-1.180;2023-02-02T13:24:39;1.77;;;1.00;;
14326;SDS011;7247;53.330;-1.180;2023-02-02T13:27:09;1.20;;;0.93;;
14326;SDS011;7247;53.330;-1.180;2023-02-02T13:29:36;1.00;;;0.70;;
14326;SDS011;7247;53.330;-1.180;2023-02-02T13:32:03;1.33;;;0.83;;
14326;SDS011;7247;53.330;-1.180;2023-02-02T13:34:37;1.10;;;0.80;;
14326;SDS011;7247;53.330;-1.180;2023-02-02T13:37:06;1.77;;;0.87;;
14326;SDS011;7247;53.330;-1.180;2023-02-02T13:39:35;1.67;;;0.87;;
14326;SDS011;7247;53.330;-1.180;2023-02-02T13:42:02;2.40;;;0.90;;
14326;SDS011;7247;53.330;-1.180;2023-02-02T13:44:41;1.80;;;0.97;;
14326;SDS011;7247;53.330;-1.180;2023-02-02T13:47:10;1.07;;;0.97;;
14326;SDS011;7247;53.330;-1.180;2023-02-02T13:49:41;1.10;;;0.90;;
14326;SDS011;7247;53.330;-1.180;2023-02-02T13:52:23;1.23;;;1.10;;
14326;SDS011;7247;53.330;-1.180;2023-02-02T13:55:01;1.40;;;1.17;;
14326;SDS011;7247;53.330;-1.180;2023-02-02T14:00:16;2.77;;;1.03;;
14326;SDS011;7247;53.330;-1.180;2023-02-02T14:02:45;1.27;;;1.17;;
14326;SDS011;7247;53.330;-1.180;2023-02-02T14:05:21;1.20;;;1.10;;
14326;SDS011;7247;53.330;-1.180;2023-02-02T14:07:48;1.53;;;1.17;;
14326;SDS011;7247;53.330;-1.180;2023-02-02T14:10:21;1.30;;;1.10;;
14326;SDS011;7247;53.330;-1.180;2023-02-02T14:12:48;3.23;;;1.30;;
14326;SDS011;7247;53.330;-1.180;2023-02-02T14:15:14;2.90;;;1.30;;
14326;SDS011;7247;53.330;-1.180;2023-02-02T14:17:48;1.57;;;1.20;;
14326;SDS011;7247;53.330;-1.180;2023-02-02T14:22:58;2.07;;;1.20;;
14326;SDS011;7247;53.330;-1.180;2023-02-02T14:28:39;2.27;;;1.07;;
14326;SDS011;7247;53.330;-1.180;2023-02-02T14:33:37;1.97;;;0.90;;
14326;SDS011;7247;53.330;-1.180;2023-02-02T14:36:12;1.70;;;0.87;;
14326;SDS011;7247;53.330;-1.180;2023-02-02T14:41:23;1.47;;;1.10;;
14326;SDS011;7247;53.330;-1.180;2023-02-02T14:44:07;1.33;;;0.73;;
14326;SDS011;7247;53.330;-1.180;2023-02-02T14:46:37;2.83;;;0.90;;
14326;SDS011;7247;53.330;-1.180;2023-02-02T14:49:10;2.30;;;1.00;;
14326;SDS011;7247;53.330;-1.180;2023-02-02T14:54:23;2.67;;;0.80;;
14326;SDS011;7247;53.330;-1.180;2023-02-02T14:56:53;2.67;;;0.90;;
14326;SDS011;7247;53.330;-1.180;2023-02-02T14:59:21;3.43;;;0.87;;
14326;SDS011;7247;53.330;-1.180;2023-02-02T15:01:52;1.57;;;0.87;;
14326;SDS011;7247;53.330;-1.180;2023-02-02T15:04:22;4.77;;;0.90;;
14326;SDS011;7247;53.330;-1.180;2023-02-02T15:06:49;0.93;;;0.70;;
14326;SDS011;7247;53.330;-1.180;2023-02-02T15:12:22;1.30;;;0.80;;
14326;SDS011;7247;53.330;-1.180;2023-02-02T15:14:53;3.37;;;0.87;;
14326;SDS011;7247;53.330;-1.180;2023-02-02T15:17:22;1.20;;;0.80;;
14326;SDS011;7247;53.330;-1.180;2023-02-02T15:19:51;1.97;;;0.70;;
14326;SDS011;7247;53.330;-1.180;2023-02-02T15:22:22;2.10;;;0.80;;